createdAt,value
2018-06-13T00:01:41.865Z,15.23
2018-06-13T00:04:10.368Z,15.23
2018-06-13T00:06:38.926Z,15.18
2018-06-13T00:09:08.898Z,15.20
2018-06-13T00:11:37.339Z,15.19
2018-06-13T00:14:06.111Z,15.18
2018-06-13T00:16:34.615Z,15.18
2018-06-13T00:19:03.052Z,15.16
2018-06-13T00:21:31.543Z,15.17
2018-06-13T00:24:00.014Z,15.18
2018-06-13T00:26:28.429Z,15.17
2018-06-13T00:28:56.863Z,15.17
2018-06-13T00:31:25.573Z,15.15
2018-06-13T00:33:54.050Z,15.17
2018-06-13T00:36:26.798Z,15.15
2018-06-13T00:38:55.262Z,15.12
2018-06-13T00:41:23.698Z,15.11
2018-06-13T00:43:52.174Z,15.11
2018-06-13T00:46:20.690Z,15.14
2018-06-13T00:48:49.142Z,15.17
2018-06-13T00:51:17.645Z,15.17
2018-06-13T00:53:46.089Z,15.19
2018-06-13T00:56:25.751Z,15.18
2018-06-13T00:58:54.250Z,15.20
2018-06-13T01:01:22.686Z,15.23
2018-06-13T01:03:51.082Z,15.22
2018-06-13T01:06:19.721Z,15.24
2018-06-13T01:08:48.204Z,15.25
2018-06-13T01:11:16.649Z,15.27
2018-06-13T01:13:45.119Z,15.25
2018-06-13T01:16:13.669Z,15.32
2018-06-13T01:18:42.117Z,15.31
2018-06-13T01:21:10.547Z,15.32
2018-06-13T01:23:39.187Z,15.32
2018-06-13T01:26:07.621Z,15.33
2018-06-13T01:28:36.282Z,15.35
2018-06-13T01:31:04.666Z,15.36
2018-06-13T01:33:33.073Z,15.33
2018-06-13T01:36:01.553Z,15.34
2018-06-13T01:38:30.033Z,15.33
2018-06-13T01:40:58.505Z,15.36
2018-06-13T01:43:26.916Z,15.37
2018-06-13T01:45:55.274Z,15.38
2018-06-13T01:48:24.103Z,15.40
2018-06-13T01:50:56.344Z,15.42
2018-06-13T01:53:24.854Z,15.39
2018-06-13T02:02:56.114Z,15.29
2018-06-13T02:05:24.602Z,15.31
2018-06-13T02:07:53.081Z,15.30
2018-06-13T02:10:21.560Z,15.34
2018-06-13T02:12:50.045Z,15.37
2018-06-13T02:15:18.679Z,15.36
2018-06-13T02:17:47.133Z,15.37
2018-06-13T02:20:15.866Z,15.38
2018-06-13T02:22:44.253Z,15.40
2018-06-13T02:25:12.631Z,15.40
2018-06-13T02:27:41.009Z,15.38
2018-06-13T02:30:09.514Z,15.36
2018-06-13T02:32:41.223Z,15.36
2018-06-13T02:35:09.658Z,15.37
2018-06-13T02:37:38.126Z,15.36
2018-06-13T02:40:06.739Z,15.37
2018-06-13T02:42:35.190Z,15.38
2018-06-13T02:45:03.808Z,15.41
2018-06-13T02:47:32.314Z,15.40
2018-06-13T02:50:00.750Z,15.38
2018-06-13T02:52:29.226Z,15.34
2018-06-13T02:54:57.706Z,15.32
2018-06-13T02:57:26.414Z,15.22
2018-06-13T02:59:54.995Z,15.14
2018-06-13T03:02:23.437Z,15.10
2018-06-13T03:04:51.966Z,15.07
2018-06-13T03:07:20.400Z,15.03
2018-06-13T03:09:48.785Z,15.00
2018-06-13T03:12:21.481Z,14.97
2018-06-13T03:14:50.018Z,14.97
2018-06-13T03:17:18.457Z,14.93
2018-06-13T03:19:46.918Z,14.87
2018-06-13T03:22:15.401Z,14.89
2018-06-13T03:24:43.866Z,14.92
2018-06-13T03:27:12.271Z,14.96
2018-06-13T03:29:40.742Z,14.98
2018-06-13T03:32:09.224Z,15.01
2018-06-13T03:34:37.688Z,15.00
2018-06-13T03:37:06.110Z,15.06
2018-06-13T03:39:35.546Z,15.08
2018-06-13T03:42:04.200Z,15.10
2018-06-13T03:44:32.650Z,15.09
2018-06-13T03:47:01.070Z,15.09
2018-06-13T03:49:29.518Z,15.13
2018-06-13T03:51:58.014Z,15.15
2018-06-13T03:54:26.497Z,15.17
2018-06-13T03:56:55.030Z,15.20
2018-06-13T03:59:24.293Z,15.24
2018-06-13T04:01:52.767Z,15.28
2018-06-13T04:04:21.210Z,15.29
2018-06-13T04:06:49.743Z,15.31
2018-06-13T04:09:18.332Z,15.31
2018-06-13T04:11:46.784Z,15.31
2018-06-13T04:14:15.250Z,15.32
2018-06-13T04:16:46.540Z,15.34
2018-06-13T04:19:15.174Z,15.37
2018-06-13T04:21:43.581Z,15.38
2018-06-13T04:24:12.074Z,15.36
2018-06-13T04:26:40.537Z,15.37
2018-06-13T04:29:08.998Z,15.33
2018-06-13T04:31:37.421Z,15.35
2018-06-13T04:34:05.878Z,15.35
2018-06-13T04:36:34.378Z,15.38
2018-06-13T04:39:02.850Z,15.40
2018-06-13T04:41:31.325Z,15.36
2018-06-13T04:43:59.794Z,15.36
2018-06-13T04:46:28.310Z,15.37
2018-06-13T04:48:56.803Z,15.34
2018-06-13T04:51:25.275Z,15.38
2018-06-13T04:53:53.743Z,15.37
2018-06-13T04:56:22.194Z,15.40
2018-06-13T04:58:50.714Z,15.40
2018-06-13T05:01:19.158Z,15.37
2018-06-13T05:03:47.571Z,15.40
2018-06-13T05:06:16.087Z,15.42
2018-06-13T05:08:44.571Z,15.42
2018-06-13T05:11:13.022Z,15.40
2018-06-13T05:13:41.482Z,15.42
2018-06-13T05:16:09.942Z,15.46
2018-06-13T05:18:38.370Z,15.46
2018-06-13T05:21:06.806Z,15.46
2018-06-13T05:23:35.226Z,15.49
2018-06-13T05:26:03.764Z,15.45
2018-06-13T05:28:32.167Z,15.48
2018-06-13T05:31:00.802Z,15.53
2018-06-13T05:33:29.469Z,15.54
2018-06-13T05:35:58.146Z,15.59
2018-06-13T05:38:26.663Z,15.65
2018-06-13T05:40:55.137Z,15.63
2018-06-13T05:43:23.633Z,15.63
2018-06-13T05:45:52.038Z,15.57
2018-06-13T05:48:20.434Z,15.61
2018-06-13T05:50:48.913Z,15.62
2018-06-13T05:53:17.402Z,15.64
2018-06-13T05:55:45.842Z,15.69
2018-06-13T05:58:14.405Z,15.68
2018-06-13T06:00:42.825Z,15.66
2018-06-13T06:03:11.298Z,15.66
2018-06-13T06:05:39.726Z,15.67
2018-06-13T06:08:08.178Z,15.70
2018-06-13T06:10:36.604Z,15.77
2018-06-13T06:13:05.414Z,15.79
2018-06-13T06:15:35.962Z,15.76
2018-06-13T06:18:04.398Z,15.75
2018-06-13T06:20:32.837Z,15.72
2018-06-13T06:23:01.235Z,15.71
2018-06-13T06:25:29.906Z,15.69
2018-06-13T06:27:58.466Z,15.70
2018-06-13T06:30:26.870Z,15.73
2018-06-13T06:32:55.358Z,15.73
2018-06-13T06:35:23.757Z,15.78
2018-06-13T06:37:52.371Z,15.88
2018-06-13T06:40:20.794Z,15.95
2018-06-13T06:42:53.472Z,16.05
2018-06-13T06:45:22.151Z,16.13
2018-06-13T06:47:50.662Z,16.23
2018-06-13T06:50:19.155Z,16.55
2018-06-13T06:52:47.614Z,16.42
2018-06-13T06:55:16.133Z,16.52
2018-06-13T06:57:44.538Z,16.62
2018-06-13T07:00:13.107Z,16.87
2018-06-13T07:02:41.554Z,16.73
2018-06-13T07:05:10.047Z,16.75
2018-06-13T07:07:39.079Z,16.91
2018-06-13T07:10:07.506Z,16.86
2018-06-13T07:12:35.979Z,16.77
2018-06-13T07:15:04.542Z,16.87
2018-06-13T07:17:33.025Z,16.97
2018-06-13T07:20:01.530Z,17.04
2018-06-13T07:22:30.806Z,17.40
2018-06-13T07:24:59.382Z,17.26
2018-06-13T07:27:27.777Z,17.81
2018-06-13T07:29:56.252Z,17.83
2018-06-13T07:32:24.626Z,18.00
2018-06-13T07:34:53.057Z,18.14
2018-06-13T07:37:21.491Z,18.00
2018-06-13T07:39:49.916Z,18.24
2018-06-13T07:42:18.406Z,18.27
2018-06-13T07:44:46.869Z,18.27
2018-06-13T07:47:15.483Z,18.52
2018-06-13T07:49:44.149Z,18.89
2018-06-13T07:52:12.614Z,18.99
2018-06-13T07:54:41.106Z,19.15
2018-06-13T07:57:09.594Z,18.86
2018-06-13T07:59:38.034Z,18.96
2018-06-13T08:02:06.577Z,18.87
2018-06-13T08:04:35.031Z,19.01
2018-06-13T08:07:03.594Z,18.92
2018-06-13T08:09:32.057Z,18.90
2018-06-13T08:12:00.433Z,18.85
2018-06-13T08:14:28.903Z,19.14
2018-06-13T08:16:57.364Z,19.17
2018-06-13T08:19:25.793Z,19.15
2018-06-13T08:21:54.341Z,19.40
2018-06-13T08:24:22.742Z,19.54
2018-06-13T08:26:54.714Z,19.24
2018-06-13T08:29:23.542Z,18.97
2018-06-13T08:31:52.587Z,19.20
2018-06-13T08:34:21.096Z,19.35
2018-06-13T08:36:49.707Z,19.33
2018-06-13T08:39:18.170Z,19.75
2018-06-13T08:41:46.670Z,19.91
2018-06-13T08:44:15.180Z,19.94
2018-06-13T08:46:43.623Z,19.88
2018-06-13T08:49:12.078Z,19.43
2018-06-13T08:51:40.587Z,18.76
2018-06-13T08:54:09.093Z,18.44
2018-06-13T08:56:37.581Z,18.14
2018-06-13T08:59:06.097Z,17.99
2018-06-13T09:01:34.620Z,18.05
2018-06-13T09:04:03.148Z,17.96
2018-06-13T09:06:31.564Z,18.09
2018-06-13T09:09:00.128Z,18.24
2018-06-13T09:11:28.529Z,18.72
2018-06-13T09:13:57.087Z,18.72
2018-06-13T09:16:25.458Z,18.77
2018-06-13T09:18:54.118Z,18.70
2018-06-13T09:21:22.749Z,18.65
2018-06-13T09:23:51.231Z,18.47
2018-06-13T09:26:19.746Z,18.52
2018-06-13T09:28:48.317Z,18.53
2018-06-13T09:31:17.021Z,18.93
2018-06-13T09:33:45.481Z,19.13
2018-06-13T09:36:13.953Z,19.10
2018-06-13T09:38:42.443Z,19.23
2018-06-13T09:41:10.870Z,19.06
2018-06-13T09:43:39.327Z,18.96
2018-06-13T09:46:12.013Z,19.36
2018-06-13T09:48:36.455Z,19.70
2018-06-13T09:51:05.382Z,19.63
2018-06-13T09:53:33.880Z,19.72
2018-06-13T09:56:02.231Z,19.62
2018-06-13T09:58:34.841Z,19.51
2018-06-13T10:01:08.001Z,19.40
2018-06-13T10:03:36.866Z,19.52
2018-06-13T10:06:05.397Z,19.75
2018-06-13T10:08:33.960Z,19.99
2018-06-13T10:11:02.422Z,20.16
2018-06-13T10:13:30.911Z,20.20
2018-06-13T10:15:59.603Z,20.22
2018-06-13T10:18:28.098Z,20.05
2018-06-13T10:20:56.570Z,19.85
2018-06-13T10:23:25.082Z,19.55
2018-06-13T10:25:53.494Z,19.64
2018-06-13T10:28:21.927Z,19.78
2018-06-13T10:30:50.390Z,20.06
2018-06-13T10:33:18.839Z,20.17
2018-06-13T10:35:47.497Z,20.48
2018-06-13T10:38:15.914Z,20.51
2018-06-13T10:40:44.285Z,20.53
2018-06-13T10:43:12.774Z,20.47
2018-06-13T10:45:41.755Z,20.74
2018-06-13T10:48:10.427Z,20.57
2018-06-13T10:50:38.902Z,20.66
2018-06-13T10:53:07.314Z,20.79
2018-06-13T10:55:35.821Z,20.82
2018-06-13T10:58:04.322Z,20.44
2018-06-13T11:00:32.868Z,20.43
2018-06-13T11:03:01.322Z,20.46
2018-06-13T11:05:29.745Z,20.11
2018-06-13T11:07:58.587Z,20.37
2018-06-13T11:10:27.133Z,20.21
2018-06-13T11:12:55.558Z,19.99
2018-06-13T11:15:24.183Z,20.25
2018-06-13T11:17:52.655Z,19.98
2018-06-13T11:20:21.240Z,19.78
2018-06-13T11:22:49.723Z,19.58
2018-06-13T11:25:18.253Z,19.73
2018-06-13T11:27:46.743Z,19.80
2018-06-13T11:30:15.398Z,19.51
2018-06-13T11:32:44.025Z,19.04
2018-06-13T11:35:12.463Z,19.08
2018-06-13T11:37:40.890Z,18.88
2018-06-13T11:40:09.394Z,18.72
2018-06-13T11:42:37.848Z,18.62
2018-06-13T11:45:06.434Z,18.31
2018-06-13T11:47:34.927Z,18.17
2018-06-13T11:50:03.583Z,17.99
2018-06-13T11:52:32.219Z,17.90
2018-06-13T11:55:00.621Z,17.78
2018-06-13T11:57:29.050Z,17.86
2018-06-13T11:59:57.494Z,17.95
2018-06-13T12:02:25.985Z,18.05
2018-06-13T12:04:54.446Z,18.08
2018-06-13T12:07:22.926Z,17.99
2018-06-13T12:09:51.402Z,18.08
2018-06-13T12:12:19.822Z,18.28
2018-06-13T12:14:48.314Z,18.50
2018-06-13T12:17:16.759Z,18.52
2018-06-13T12:19:45.242Z,18.81
2018-06-13T12:22:13.785Z,19.09
2018-06-13T12:24:42.183Z,19.17
2018-06-13T12:27:10.822Z,19.31
2018-06-13T12:29:39.408Z,19.24
2018-06-13T12:32:07.903Z,19.09
2018-06-13T12:34:36.374Z,18.99
2018-06-13T12:37:04.901Z,19.08
2018-06-13T12:39:33.281Z,19.02
2018-06-13T12:42:01.857Z,19.31
2018-06-13T12:44:30.628Z,19.25
2018-06-13T12:46:59.229Z,19.26
2018-06-13T12:49:27.762Z,19.36
2018-06-13T12:51:56.286Z,19.41
2018-06-13T12:54:24.698Z,19.42
2018-06-13T12:56:53.147Z,19.73
2018-06-13T12:59:21.610Z,19.67
2018-06-13T13:01:50.174Z,19.70
2018-06-13T13:04:18.650Z,20.17
2018-06-13T13:06:47.103Z,20.01
2018-06-13T13:09:15.624Z,20.25
2018-06-13T13:11:44.455Z,20.15
2018-06-13T13:14:13.018Z,20.65
2018-06-13T13:16:41.450Z,20.85
2018-06-13T13:19:09.957Z,20.87
2018-06-13T13:21:38.494Z,21.08
2018-06-13T13:24:07.162Z,21.02
2018-06-13T13:26:35.551Z,21.35
2018-06-13T13:29:04.335Z,21.37
2018-06-13T13:31:33.431Z,21.73
2018-06-13T13:34:01.983Z,21.91
2018-06-13T13:36:30.600Z,22.26
2018-06-13T13:38:59.030Z,22.57
2018-06-13T13:41:27.614Z,22.95
2018-06-13T13:43:56.088Z,23.17
2018-06-13T13:46:24.566Z,23.38
2018-06-13T13:48:53.210Z,23.82
2018-06-13T13:51:21.715Z,24.78
2018-06-13T13:53:50.246Z,25.03
2018-06-13T13:56:18.686Z,24.77
2018-06-13T13:58:47.231Z,23.74
2018-06-13T14:01:15.623Z,22.46
2018-06-13T14:03:44.010Z,21.27
2018-06-13T14:06:12.377Z,20.56
2018-06-13T14:08:40.869Z,20.25
2018-06-13T14:11:09.246Z,19.91
2018-06-13T14:13:38.253Z,19.75
2018-06-13T14:16:06.737Z,19.48
2018-06-13T14:18:35.198Z,19.49
2018-06-13T14:21:04.669Z,19.51
2018-06-13T14:23:33.078Z,19.49
2018-06-13T14:26:01.503Z,19.51
2018-06-13T14:28:29.941Z,19.73
2018-06-13T14:30:58.638Z,19.73
2018-06-13T14:33:27.141Z,19.92
2018-06-13T14:35:55.680Z,20.09
2018-06-13T14:38:24.066Z,20.29
2018-06-13T14:40:52.629Z,20.38
2018-06-13T14:43:21.047Z,20.70
2018-06-13T14:45:49.474Z,20.84
2018-06-13T14:48:17.877Z,21.05
2018-06-13T14:50:46.318Z,21.35
2018-06-13T14:53:14.971Z,21.38
2018-06-13T14:55:52.674Z,21.74
2018-06-13T14:58:21.239Z,21.75
2018-06-13T15:00:49.718Z,21.50
2018-06-13T15:03:18.109Z,21.75
2018-06-13T15:05:46.493Z,22.00
2018-06-13T15:08:18.685Z,22.39
2018-06-13T15:10:47.275Z,22.65
2018-06-13T15:13:16.259Z,22.45
2018-06-13T15:15:45.203Z,21.88
2018-06-13T15:18:13.792Z,21.41
2018-06-13T15:20:42.392Z,21.23
2018-06-13T15:23:10.818Z,20.70
2018-06-13T15:25:39.307Z,20.56
2018-06-13T15:28:07.854Z,20.83
2018-06-13T15:30:36.362Z,20.78
2018-06-13T15:33:05.151Z,21.13
2018-06-13T15:35:33.696Z,21.16
2018-06-13T15:38:02.471Z,20.99
2018-06-13T15:40:30.938Z,21.35
2018-06-13T15:42:59.365Z,21.80
2018-06-13T15:45:27.900Z,22.40
2018-06-13T15:47:56.351Z,22.93
2018-06-13T15:50:24.916Z,23.40
2018-06-13T15:52:53.458Z,23.41
2018-06-13T15:55:21.898Z,23.81
2018-06-13T15:57:50.357Z,25.01
2018-06-13T16:00:18.911Z,29.90
2018-06-13T16:02:47.355Z,31.30
2018-06-13T16:05:15.914Z,31.33
2018-06-13T16:07:44.731Z,30.70
2018-06-13T16:10:13.350Z,28.35
2018-06-13T16:12:42.037Z,31.23
2018-06-13T16:15:10.592Z,32.07
2018-06-13T16:17:39.044Z,31.88
2018-06-13T16:20:07.561Z,29.91
2018-06-13T16:22:36.346Z,27.21
2018-06-13T16:25:05.061Z,24.76
2018-06-13T16:27:33.466Z,23.47
2018-06-13T16:30:02.165Z,23.23
2018-06-13T16:32:30.696Z,22.65
2018-06-13T16:34:59.111Z,24.40
2018-06-13T16:37:27.877Z,25.80
2018-06-13T16:39:56.291Z,28.34
2018-06-13T16:42:25.174Z,27.42
2018-06-13T16:44:53.710Z,26.66
2018-06-13T16:47:22.137Z,24.99
2018-06-13T16:49:51.115Z,23.86
2018-06-13T16:52:30.794Z,23.56
2018-06-13T16:55:20.111Z,23.12
2018-06-13T16:57:49.316Z,23.36
2018-06-13T17:00:18.757Z,22.89
2018-06-13T17:02:47.519Z,22.83
2018-06-13T17:05:16.078Z,24.12
2018-06-13T17:07:49.262Z,23.40
2018-06-13T17:10:17.764Z,23.23
2018-06-13T17:12:46.174Z,24.15
2018-06-13T17:15:14.642Z,22.43
2018-06-13T17:17:43.130Z,21.84
2018-06-13T17:20:11.611Z,21.21
2018-06-13T17:22:40.197Z,21.72
2018-06-13T17:25:08.679Z,21.14
2018-06-13T17:27:37.221Z,20.97
2018-06-13T17:30:05.809Z,20.63
2018-06-13T17:32:34.279Z,20.39
2018-06-13T17:35:02.737Z,20.14
2018-06-13T17:37:31.173Z,20.33
2018-06-13T17:39:59.607Z,20.59
2018-06-13T17:42:28.055Z,20.51
2018-06-13T17:44:56.650Z,20.56
2018-06-13T17:47:25.375Z,21.31
2018-06-13T17:49:53.792Z,21.39
2018-06-13T17:52:22.250Z,21.63
2018-06-13T17:54:51.065Z,22.88
2018-06-13T17:57:19.794Z,23.85
2018-06-13T17:59:48.383Z,22.55
2018-06-13T18:02:17.278Z,22.42
2018-06-13T18:04:46.052Z,22.31
2018-06-13T18:07:14.579Z,21.70
2018-06-13T18:09:43.296Z,20.86
2018-06-13T18:12:16.255Z,20.28
2018-06-13T18:14:45.039Z,19.58
2018-06-13T18:17:13.488Z,19.34
2018-06-13T18:19:42.350Z,19.02
2018-06-13T18:22:10.994Z,18.82
2018-06-13T18:24:39.644Z,18.76
2018-06-13T18:27:08.165Z,18.64
2018-06-13T18:29:36.752Z,18.45
2018-06-13T18:32:05.183Z,18.31
2018-06-13T18:34:33.625Z,18.08
2018-06-13T18:37:02.068Z,17.90
2018-06-13T18:39:30.830Z,17.74
2018-06-13T18:41:59.388Z,17.52
2018-06-13T18:44:28.009Z,17.33
2018-06-13T18:46:56.477Z,17.20
2018-06-13T18:49:25.313Z,17.08
2018-06-13T18:51:53.873Z,16.94
2018-06-13T18:54:22.468Z,16.86
2018-06-13T18:56:51.091Z,16.72
2018-06-13T18:59:19.602Z,16.63
2018-06-13T19:01:48.062Z,16.51
2018-06-13T19:04:16.719Z,16.39
2018-06-13T19:06:45.147Z,16.25
2018-06-13T19:09:13.695Z,16.14
2018-06-13T19:11:42.451Z,16.03
2018-06-13T19:14:11.528Z,15.93
2018-06-13T19:16:41.198Z,15.82
2018-06-13T19:19:09.755Z,15.75
2018-06-13T19:21:38.199Z,15.57
2018-06-13T19:24:06.931Z,15.52
2018-06-13T19:26:35.509Z,15.48
2018-06-13T19:29:04.195Z,15.38
2018-06-13T19:31:32.774Z,15.27
2018-06-13T19:34:01.446Z,15.16
2018-06-13T19:36:29.993Z,15.01
2018-06-13T19:38:58.814Z,14.90
2018-06-13T19:41:27.382Z,14.83
2018-06-13T19:43:57.066Z,14.76
2018-06-13T19:46:25.654Z,14.75
2018-06-13T19:48:55.167Z,14.68
2018-06-13T19:51:23.722Z,14.58
2018-06-13T19:53:57.514Z,14.63
2018-06-13T19:56:30.188Z,14.60
2018-06-13T19:58:58.584Z,14.62
2018-06-13T20:01:31.542Z,14.61
2018-06-13T20:04:05.454Z,14.59
2018-06-13T20:06:37.553Z,14.53
2018-06-13T20:09:08.090Z,14.50
2018-06-13T20:11:36.619Z,14.54
2018-06-13T20:14:10.407Z,14.49
2018-06-13T20:16:53.899Z,14.43
2018-06-13T20:19:27.998Z,14.37
2018-06-13T20:21:57.706Z,14.32
2018-06-13T20:24:26.350Z,14.22
2018-06-13T20:27:00.150Z,14.13
2018-06-13T20:29:34.047Z,14.03
2018-06-13T20:32:02.722Z,13.88
2018-06-13T20:34:31.158Z,13.85
2018-06-13T20:36:59.584Z,13.88
2018-06-13T20:39:30.537Z,13.91
2018-06-13T20:41:59.217Z,13.94
2018-06-13T20:44:27.708Z,14.00
2018-06-13T20:46:56.250Z,14.07
2018-06-13T20:49:24.675Z,14.17
2018-06-13T20:51:53.186Z,14.26
2018-06-13T20:54:21.802Z,14.28
2018-06-13T20:56:50.266Z,14.35
2018-06-13T20:59:18.758Z,14.34
2018-06-13T21:01:47.229Z,14.36
2018-06-13T21:04:15.733Z,14.32
2018-06-13T21:06:44.222Z,14.27
2018-06-13T21:09:12.812Z,14.26
2018-06-13T21:11:41.347Z,14.22
2018-06-13T21:14:09.982Z,14.10
2018-06-13T21:16:38.503Z,14.05
2018-06-13T21:19:07.123Z,13.99
2018-06-13T21:21:35.533Z,13.89
2018-06-13T21:24:04.119Z,13.82
2018-06-13T21:26:32.686Z,13.81
2018-06-13T21:29:01.288Z,13.77
2018-06-13T21:31:30.294Z,13.67
2018-06-13T21:33:58.959Z,13.55
2018-06-13T21:36:28.319Z,13.47
2018-06-13T21:38:56.792Z,13.39
2018-06-13T21:41:25.275Z,13.35
2018-06-13T21:43:58.131Z,13.27
2018-06-13T21:46:26.817Z,13.18
2018-06-13T21:48:55.672Z,13.10
2018-06-13T21:51:24.093Z,13.01
2018-06-13T21:53:52.615Z,12.94
2018-06-13T21:56:21.175Z,12.88
2018-06-13T21:58:49.662Z,12.79
2018-06-13T22:01:18.117Z,12.74
2018-06-13T22:03:46.543Z,12.66
2018-06-13T22:06:15.014Z,12.66
2018-06-13T22:08:43.479Z,12.72
2018-06-13T22:11:12.214Z,12.74
2018-06-13T22:13:41.705Z,12.72
2018-06-13T22:16:10.173Z,12.66
2018-06-13T22:18:38.682Z,12.59
2018-06-13T22:21:07.736Z,12.57
2018-06-13T22:23:36.330Z,12.51
2018-06-13T22:26:04.841Z,12.45
2018-06-13T22:28:33.297Z,12.36
2018-06-13T22:31:02.042Z,12.25
2018-06-13T22:33:30.482Z,12.12
2018-06-13T22:35:59.108Z,12.19
2018-06-13T22:38:27.923Z,12.14
2018-06-13T22:40:56.313Z,12.09
2018-06-13T22:43:25.731Z,12.00
2018-06-13T22:45:54.162Z,11.98
2018-06-13T22:48:26.520Z,11.97
2018-06-13T22:50:54.897Z,11.94
2018-06-13T22:53:23.343Z,11.90
2018-06-13T22:55:51.813Z,11.95
2018-06-13T22:58:20.258Z,11.95
2018-06-13T23:01:05.071Z,11.99
2018-06-13T23:03:33.800Z,12.15
2018-06-13T23:06:04.389Z,12.23
2018-06-13T23:08:34.042Z,12.37
2018-06-13T23:11:02.554Z,12.48
2018-06-13T23:13:31.436Z,12.51
2018-06-13T23:16:03.856Z,12.46
2018-06-13T23:18:32.447Z,12.46
2018-06-13T23:21:01.201Z,12.38
2018-06-13T23:23:29.809Z,12.24
2018-06-13T23:25:58.818Z,12.23
2018-06-13T23:28:27.571Z,12.29
2018-06-13T23:30:57.447Z,12.37
2018-06-13T23:33:25.822Z,12.43
2018-06-13T23:35:54.364Z,12.52
2018-06-13T23:38:23.013Z,12.51
2018-06-13T23:40:51.428Z,12.58
2018-06-13T23:43:20.140Z,12.57
2018-06-13T23:45:48.595Z,12.53
2018-06-13T23:48:17.020Z,12.56
2018-06-13T23:50:46.510Z,12.61
2018-06-13T23:53:15.074Z,12.70
2018-06-13T23:55:43.529Z,12.73
2018-06-13T23:58:12.402Z,12.73
